createdAt,value
2022-11-20T00:01:26.327Z,19.20
2022-11-20T00:03:55.517Z,19.60
2022-11-20T00:06:23.806Z,17.30
2022-11-20T00:08:53.088Z,13.20
2022-11-20T00:11:23.116Z,11.90
2022-11-20T00:13:52.927Z,15.00
2022-11-20T00:16:23.697Z,15.90
2022-11-20T00:18:51.735Z,14.50
2022-11-20T00:21:24.519Z,17.50
2022-11-20T00:23:55.162Z,16.10
2022-11-20T00:26:24.402Z,17.30
2022-11-20T00:28:53.942Z,13.80
2022-11-20T00:31:21.516Z,13.10
2022-11-20T00:33:50.025Z,11.70
2022-11-20T00:36:20.415Z,12.00
2022-11-20T00:38:49.295Z,11.80
2022-11-20T00:41:17.575Z,11.00
2022-11-20T00:43:45.959Z,11.40
2022-11-20T00:46:18.580Z,13.80
2022-11-20T00:48:46.642Z,13.90
2022-11-20T00:51:15.895Z,14.50
2022-11-20T00:53:43.679Z,14.10
2022-11-20T00:56:18.396Z,14.00
2022-11-20T00:58:48.927Z,13.30
2022-11-20T01:01:25.683Z,15.40
2022-11-20T01:03:55.937Z,15.20
2022-11-20T01:06:30.664Z,15.30
2022-11-20T01:09:00.330Z,13.20
2022-11-20T01:11:34.616Z,13.30
2022-11-20T01:14:03.486Z,16.10
2022-11-20T01:16:33.643Z,13.40
2022-11-20T01:19:04.761Z,13.60
2022-11-20T01:21:40.179Z,15.30
2022-11-20T01:24:09.883Z,13.20
2022-11-20T01:26:39.846Z,14.20
2022-11-20T01:29:07.850Z,14.00
2022-11-20T01:31:37.583Z,14.00
2022-11-20T01:34:13.935Z,13.10
2022-11-20T01:36:41.805Z,13.60
2022-11-20T01:39:13.272Z,13.00
2022-11-20T01:41:59.536Z,13.00
2022-11-20T01:45:03.565Z,11.40
2022-11-20T01:47:37.664Z,12.20
2022-11-20T01:50:15.263Z,12.30
2022-11-20T01:52:49.165Z,12.80
2022-11-20T01:55:32.800Z,12.70
2022-11-20T01:58:00.477Z,10.40
2022-11-20T02:00:28.019Z,12.60
2022-11-20T02:02:58.665Z,10.60
2022-11-20T02:05:32.995Z,10.30
2022-11-20T02:08:01.626Z,7.90
2022-11-20T02:10:31.464Z,7.00
2022-11-20T02:13:17.276Z,7.40
2022-11-20T02:15:45.340Z,10.10
2022-11-20T02:18:13.519Z,10.70
2022-11-20T02:20:45.099Z,12.10
2022-11-20T02:23:20.594Z,16.10
2022-11-20T02:25:48.666Z,9.90
2022-11-20T02:28:16.758Z,10.00
2022-11-20T02:30:43.785Z,10.10
2022-11-20T02:33:11.053Z,9.50
2022-11-20T02:35:44.601Z,7.40
2022-11-20T02:38:12.218Z,8.60
2022-11-20T02:40:39.356Z,7.50
2022-11-20T02:43:06.509Z,8.40
2022-11-20T02:45:33.955Z,7.70
2022-11-20T02:48:01.535Z,5.40
2022-11-20T02:50:28.895Z,6.50
2022-11-20T02:52:56.236Z,6.80
2022-11-20T02:55:24.004Z,8.10
2022-11-20T02:57:51.242Z,9.20
2022-11-20T03:00:20.654Z,8.70
2022-11-20T03:02:48.519Z,8.50
2022-11-20T03:05:15.877Z,9.00
2022-11-20T03:07:45.026Z,7.80
2022-11-20T03:10:12.839Z,9.00
2022-11-20T03:12:40.096Z,9.10
2022-11-20T03:15:08.156Z,8.80
2022-11-20T03:17:36.528Z,9.30
2022-11-20T03:20:04.755Z,8.70
2022-11-20T03:22:31.856Z,8.90
2022-11-20T03:24:59.117Z,8.70
2022-11-20T03:27:26.359Z,8.20
2022-11-20T03:29:54.336Z,8.90
2022-11-20T03:32:21.796Z,8.20
2022-11-20T03:34:48.936Z,10.70
2022-11-20T03:37:16.388Z,9.00
2022-11-20T03:39:43.424Z,9.10
2022-11-20T03:42:30.978Z,9.20
2022-11-20T03:44:58.304Z,9.70
2022-11-20T03:47:25.463Z,9.00
2022-11-20T03:49:52.803Z,9.10
2022-11-20T03:52:20.996Z,9.50
2022-11-20T03:54:48.660Z,9.20
2022-11-20T03:57:15.707Z,9.60
2022-11-20T03:59:42.857Z,8.30
2022-11-20T04:02:11.197Z,9.00
2022-11-20T04:04:38.274Z,8.90
2022-11-20T04:07:05.598Z,9.10
2022-11-20T04:09:32.787Z,10.00
2022-11-20T04:11:59.939Z,10.40
2022-11-20T04:14:28.108Z,10.60
2022-11-20T04:16:55.355Z,11.10
2022-11-20T04:19:24.341Z,12.70
2022-11-20T04:21:51.927Z,11.60
2022-11-20T04:24:19.353Z,11.70
2022-11-20T04:26:46.599Z,11.80
2022-11-20T04:29:13.762Z,11.10
2022-11-20T04:31:40.907Z,10.70
2022-11-20T04:34:08.773Z,14.00
2022-11-20T04:36:36.436Z,14.00
2022-11-20T04:39:06.501Z,12.20
2022-11-20T04:41:35.884Z,12.40
2022-11-20T04:44:05.114Z,11.50
2022-11-20T04:46:35.093Z,11.90
2022-11-20T04:49:03.438Z,13.00
2022-11-20T04:51:30.589Z,11.80
2022-11-20T04:53:57.761Z,13.40
2022-11-20T04:56:25.092Z,12.90
2022-11-20T04:58:52.252Z,11.50
2022-11-20T05:01:22.492Z,11.80
2022-11-20T05:03:50.437Z,13.30
2022-11-20T05:06:23.959Z,12.20
2022-11-20T05:08:52.108Z,12.40
2022-11-20T05:11:21.651Z,11.20
2022-11-20T05:13:51.223Z,11.80
2022-11-20T05:16:27.587Z,12.30
2022-11-20T05:18:55.887Z,12.50
2022-11-20T05:21:24.249Z,13.30
2022-11-20T05:23:51.416Z,10.90
2022-11-20T05:26:20.891Z,12.20
2022-11-20T05:28:48.458Z,10.70
2022-11-20T05:31:28.057Z,10.80
2022-11-20T05:33:57.938Z,11.80
2022-11-20T05:36:25.170Z,11.10
2022-11-20T05:38:58.030Z,10.80
2022-11-20T05:41:27.152Z,12.70
2022-11-20T05:43:54.399Z,11.40
2022-11-20T05:46:28.184Z,11.80
2022-11-20T05:48:58.141Z,10.90
2022-11-20T05:51:28.360Z,12.50
2022-11-20T05:53:58.250Z,11.20
2022-11-20T05:56:26.024Z,11.80
2022-11-20T05:58:53.176Z,11.80
2022-11-20T06:01:25.861Z,12.00
2022-11-20T06:03:54.861Z,14.20
2022-11-20T06:06:22.294Z,13.30
2022-11-20T06:08:49.843Z,12.60
2022-11-20T06:11:18.235Z,14.30
2022-11-20T06:13:46.089Z,14.70
2022-11-20T06:16:15.399Z,14.60
2022-11-20T06:18:42.948Z,15.00
2022-11-20T06:21:21.696Z,15.20
2022-11-20T06:23:50.047Z,14.90
2022-11-20T06:26:18.517Z,13.80
2022-11-20T06:28:46.192Z,16.40
2022-11-20T06:31:16.165Z,14.50
2022-11-20T06:33:44.395Z,12.90
2022-11-20T06:36:15.459Z,13.00
2022-11-20T06:38:43.602Z,15.10
2022-11-20T06:41:15.069Z,20.00
2022-11-20T06:43:42.822Z,17.40
2022-11-20T06:46:11.704Z,16.00
2022-11-20T06:48:39.153Z,18.10
2022-11-20T06:51:08.664Z,17.50
2022-11-20T06:53:38.063Z,17.10
2022-11-20T06:56:05.901Z,16.50
2022-11-20T06:58:34.098Z,16.40
2022-11-20T07:01:02.878Z,14.80
2022-11-20T07:03:30.141Z,14.20
2022-11-20T07:05:58.735Z,15.30
2022-11-20T07:08:26.483Z,15.90
2022-11-20T07:10:53.942Z,14.70
2022-11-20T07:13:21.198Z,13.80
2022-11-20T07:15:48.338Z,16.50
2022-11-20T07:18:15.615Z,14.40
2022-11-20T07:20:42.845Z,13.30
2022-11-20T07:23:10.106Z,11.20
2022-11-20T07:25:37.348Z,12.10
2022-11-20T07:28:05.564Z,10.80
2022-11-20T07:30:32.909Z,10.50
2022-11-20T07:33:00.658Z,9.70
2022-11-20T07:35:28.001Z,10.50
2022-11-20T07:37:55.258Z,12.70
2022-11-20T07:40:22.696Z,10.10
2022-11-20T07:42:55.396Z,10.20
2022-11-20T07:45:24.596Z,11.40
2022-11-20T07:47:52.958Z,10.10
2022-11-20T07:50:21.334Z,11.30
2022-11-20T07:52:48.822Z,10.00
2022-11-20T07:55:17.328Z,10.50
2022-11-20T07:57:44.424Z,9.50
2022-11-20T08:00:12.969Z,9.90
2022-11-20T08:02:41.408Z,12.10
2022-11-20T08:05:10.178Z,11.70
2022-11-20T08:07:41.918Z,8.80
2022-11-20T08:10:12.149Z,8.50
2022-11-20T08:13:09.079Z,12.50
2022-11-20T08:15:36.981Z,9.20
2022-11-20T08:18:29.988Z,9.70
2022-11-20T08:20:56.155Z,9.90
2022-11-20T08:23:24.473Z,11.20
2022-11-20T08:25:53.007Z,12.90
2022-11-20T08:28:22.331Z,12.90
2022-11-20T08:30:51.496Z,11.70
2022-11-20T08:33:19.708Z,7.80
2022-11-20T08:35:47.360Z,8.60
2022-11-20T08:38:14.704Z,8.10
2022-11-20T08:40:42.176Z,10.60
2022-11-20T08:43:09.500Z,8.60
2022-11-20T08:45:37.800Z,7.10
2022-11-20T08:48:06.059Z,7.30
2022-11-20T08:50:34.189Z,7.50
2022-11-20T08:53:06.201Z,7.70
2022-11-20T08:55:33.488Z,5.70
2022-11-20T08:58:05.217Z,8.20
2022-11-20T09:00:33.861Z,7.80
2022-11-20T09:03:02.681Z,10.20
2022-11-20T09:05:30.858Z,9.80
2022-11-20T09:08:00.522Z,7.70
2022-11-20T09:10:29.149Z,5.90
2022-11-20T09:12:57.117Z,8.60
2022-11-20T09:15:26.683Z,7.70
2022-11-20T09:17:54.482Z,8.20
2022-11-20T09:20:23.299Z,9.40
2022-11-20T09:22:50.868Z,9.10
2022-11-20T09:25:18.591Z,9.90
2022-11-20T09:27:47.422Z,7.00
2022-11-20T09:30:16.468Z,10.60
2022-11-20T09:32:44.493Z,11.80
2022-11-20T09:35:13.440Z,13.20
2022-11-20T09:37:42.014Z,11.20
2022-11-20T09:40:21.263Z,9.10
2022-11-20T09:43:33.679Z,8.50
2022-11-20T09:46:10.958Z,9.60
2022-11-20T09:48:44.972Z,11.10
2022-11-20T09:51:43.357Z,10.00
2022-11-20T09:54:19.836Z,11.40
2022-11-20T09:56:59.962Z,11.00
2022-11-20T09:59:38.660Z,8.90
2022-11-20T10:02:18.686Z,9.70
2022-11-20T10:04:53.568Z,9.30
2022-11-20T10:07:57.123Z,9.60
2022-11-20T10:10:31.600Z,9.80
2022-11-20T10:13:06.768Z,7.80
2022-11-20T10:15:39.954Z,6.30
2022-11-20T10:18:10.846Z,7.00
2022-11-20T10:20:49.041Z,7.30
2022-11-20T10:24:01.372Z,8.90
2022-11-20T10:26:44.182Z,8.20
2022-11-20T10:29:24.427Z,7.70
2022-11-20T10:32:20.059Z,5.90
2022-11-20T10:35:02.857Z,7.90
2022-11-20T10:37:32.940Z,6.60
2022-11-20T10:40:07.617Z,6.80
2022-11-20T10:42:45.538Z,8.10
2022-11-20T10:45:33.117Z,8.10
2022-11-20T10:48:09.525Z,8.60
2022-11-20T10:50:41.814Z,7.50
2022-11-20T10:53:08.943Z,7.10
2022-11-20T10:55:47.558Z,9.80
2022-11-20T10:58:41.026Z,8.70
2022-11-20T11:01:40.141Z,9.50
2022-11-20T11:04:23.357Z,9.50
2022-11-20T11:06:51.409Z,9.70
2022-11-20T11:09:23.320Z,8.40
2022-11-20T11:11:51.876Z,8.40
2022-11-20T11:14:19.315Z,6.30
2022-11-20T11:16:57.820Z,6.70
2022-11-20T11:19:26.237Z,7.50
2022-11-20T11:21:58.384Z,6.90
2022-11-20T11:24:45.974Z,7.40
2022-11-20T11:27:18.182Z,5.80
2022-11-20T11:29:46.808Z,6.70
2022-11-20T11:32:16.024Z,7.10
2022-11-20T11:34:43.315Z,7.00
2022-11-20T11:37:22.777Z,7.60
2022-11-20T11:40:03.980Z,7.10
2022-11-20T11:42:48.421Z,5.70
2022-11-20T11:45:18.798Z,6.90
2022-11-20T11:47:49.497Z,6.60
2022-11-20T11:50:25.017Z,4.50
2022-11-20T11:53:00.449Z,6.10
2022-11-20T11:55:42.320Z,7.10
2022-11-20T11:58:49.836Z,6.00
2022-11-20T12:01:35.913Z,5.90
2022-11-20T12:04:09.416Z,6.80
2022-11-20T12:06:39.018Z,6.90
2022-11-20T12:09:12.023Z,8.80
2022-11-20T12:11:50.629Z,7.90
2022-11-20T12:14:28.065Z,7.90
2022-11-20T12:16:59.151Z,7.20
2022-11-20T12:19:30.305Z,6.90
2022-11-20T12:22:06.256Z,7.40
2022-11-20T12:24:47.189Z,5.60
2022-11-20T12:27:55.137Z,5.80
2022-11-20T12:30:25.144Z,7.50
2022-11-20T12:33:30.398Z,7.10
2022-11-20T12:36:21.918Z,5.90
2022-11-20T12:39:31.199Z,6.70
2022-11-20T12:42:23.919Z,5.30
2022-11-20T12:45:32.784Z,6.40
2022-11-20T12:48:19.854Z,5.30
2022-11-20T12:51:15.239Z,5.50
2022-11-20T12:54:03.189Z,4.60
2022-11-20T12:56:57.267Z,6.00
2022-11-20T12:59:57.700Z,6.50
2022-11-20T13:02:40.838Z,6.40
2022-11-20T13:05:37.565Z,6.80
2022-11-20T13:08:07.571Z,5.50
2022-11-20T13:10:40.965Z,5.40
2022-11-20T13:13:47.056Z,5.10
2022-11-20T13:16:55.878Z,4.50
2022-11-20T13:19:24.561Z,3.90
2022-11-20T13:21:59.729Z,5.90
2022-11-20T13:24:31.895Z,5.20
2022-11-20T13:27:06.473Z,5.00
2022-11-20T13:29:39.057Z,5.50
2022-11-20T13:32:18.364Z,3.90
2022-11-20T13:34:55.166Z,4.80
2022-11-20T13:37:34.819Z,5.80
2022-11-20T13:40:23.307Z,5.90
2022-11-20T13:43:03.132Z,6.10
2022-11-20T13:45:33.044Z,6.80
2022-11-20T13:48:23.201Z,6.40
2022-11-20T13:51:18.504Z,6.70
2022-11-20T13:53:46.304Z,6.90
2022-11-20T13:56:42.630Z,6.30
2022-11-20T13:59:47.882Z,6.10
2022-11-20T14:02:20.730Z,6.30
2022-11-20T14:04:54.032Z,6.60
2022-11-20T14:07:24.558Z,6.40
2022-11-20T14:09:57.346Z,6.50
2022-11-20T14:12:35.645Z,7.20
2022-11-20T14:15:04.211Z,7.40
2022-11-20T14:17:37.867Z,7.40
2022-11-20T14:20:14.729Z,6.80
2022-11-20T14:22:52.232Z,8.00
2022-11-20T14:25:32.563Z,8.10
2022-11-20T14:28:02.979Z,7.30
2022-11-20T14:30:46.266Z,8.10
2022-11-20T14:33:15.320Z,7.50
2022-11-20T14:35:48.073Z,8.00
2022-11-20T14:38:17.969Z,8.70
2022-11-20T14:40:53.165Z,7.80
2022-11-20T14:43:26.574Z,8.00
2022-11-20T14:46:02.333Z,7.20
2022-11-20T14:48:33.658Z,8.30
2022-11-20T14:51:02.225Z,8.00
2022-11-20T14:53:30.120Z,7.90
2022-11-20T14:56:02.610Z,7.90
2022-11-20T14:58:33.561Z,7.70
2022-11-20T15:01:04.565Z,7.80
2022-11-20T15:03:36.344Z,8.30
2022-11-20T15:06:07.737Z,8.40
2022-11-20T15:08:36.361Z,8.10
2022-11-20T15:11:04.562Z,7.60
2022-11-20T15:13:38.657Z,9.50
2022-11-20T15:16:19.459Z,8.60
2022-11-20T15:18:47.260Z,9.10
2022-11-20T15:21:24.581Z,11.50
2022-11-20T15:23:52.397Z,9.70
2022-11-20T15:26:27.586Z,9.90
2022-11-20T15:28:56.109Z,10.70
2022-11-20T15:31:26.056Z,10.40
2022-11-20T15:33:53.716Z,8.80
2022-11-20T15:36:23.935Z,8.40
2022-11-20T15:38:51.853Z,10.00
2022-11-20T15:41:20.060Z,10.00
2022-11-20T15:43:48.229Z,9.90
2022-11-20T15:46:19.350Z,9.80
2022-11-20T15:48:59.812Z,11.10
2022-11-20T15:51:37.551Z,12.10
2022-11-20T15:54:16.270Z,13.10
2022-11-20T15:56:44.236Z,13.50
2022-11-20T15:59:12.405Z,14.30
2022-11-20T16:01:40.461Z,14.30
2022-11-20T16:04:16.835Z,14.40
2022-11-20T16:06:46.555Z,13.40
2022-11-20T16:09:15.747Z,12.60
2022-11-20T16:11:43.751Z,12.80
2022-11-20T16:14:31.950Z,12.30
2022-11-20T16:16:59.935Z,12.80
2022-11-20T16:19:27.379Z,13.20
2022-11-20T16:21:59.656Z,14.50
2022-11-20T16:24:34.562Z,13.80
2022-11-20T16:27:03.897Z,13.00
2022-11-20T16:29:32.049Z,12.90
2022-11-20T16:32:00.137Z,12.30
2022-11-20T16:34:29.640Z,11.70
2022-11-20T16:36:58.337Z,9.80
2022-11-20T16:39:32.103Z,10.00
2022-11-20T16:42:00.161Z,9.50
2022-11-20T16:44:29.289Z,11.60
2022-11-20T16:46:57.257Z,10.40
2022-11-20T16:49:25.436Z,9.80
2022-11-20T16:51:55.764Z,9.30
2022-11-20T16:54:23.463Z,10.50
2022-11-20T16:56:52.914Z,11.30
2022-11-20T16:59:21.147Z,8.50
2022-11-20T17:01:49.766Z,12.00
2022-11-20T17:04:22.006Z,9.50
2022-11-20T17:06:51.046Z,10.60
2022-11-20T17:09:19.477Z,11.30
2022-11-20T17:11:49.763Z,10.50
2022-11-20T17:14:21.343Z,12.10
2022-11-20T17:16:49.678Z,11.80
2022-11-20T17:19:22.083Z,12.20
2022-11-20T17:21:50.771Z,13.10
2022-11-20T17:24:19.007Z,14.40
2022-11-20T17:26:47.306Z,14.70
2022-11-20T17:29:25.487Z,13.00
2022-11-20T17:31:55.617Z,14.70
2022-11-20T17:34:23.951Z,14.50
2022-11-20T17:36:51.454Z,13.70
2022-11-20T17:39:20.636Z,15.10
2022-11-20T17:42:08.280Z,14.20
2022-11-20T17:44:36.152Z,15.90
2022-11-20T17:47:04.754Z,18.70
2022-11-20T17:49:32.223Z,18.10
2022-11-20T17:52:00.660Z,15.90
2022-11-20T17:54:28.935Z,15.80
2022-11-20T17:57:15.959Z,16.10
2022-11-20T17:59:44.070Z,13.00
2022-11-20T18:02:13.794Z,11.70
2022-11-20T18:04:42.326Z,9.80
2022-11-20T18:07:13.602Z,10.80
2022-11-20T18:09:41.740Z,11.50
2022-11-20T18:12:09.817Z,11.70
2022-11-20T18:14:40.450Z,11.70
2022-11-20T18:17:14.679Z,11.40
2022-11-20T18:20:01.083Z,12.90
2022-11-20T18:22:33.541Z,12.70
2022-11-20T18:25:00.995Z,12.50
2022-11-20T18:27:29.268Z,12.10
2022-11-20T18:29:57.765Z,12.30
2022-11-20T18:32:26.113Z,11.90
2022-11-20T18:34:55.401Z,12.90
2022-11-20T18:37:23.642Z,13.20
2022-11-20T18:39:51.895Z,13.20
2022-11-20T18:42:38.057Z,13.50
2022-11-20T18:45:07.249Z,13.40
2022-11-20T18:47:40.543Z,13.50
2022-11-20T18:50:11.137Z,13.30
2022-11-20T18:52:45.296Z,12.90
2022-11-20T18:55:16.042Z,13.20
2022-11-20T18:57:43.713Z,13.30
2022-11-20T19:00:12.374Z,12.80
2022-11-20T19:05:29.150Z,13.40
2022-11-20T19:07:56.759Z,13.70
2022-11-20T19:10:25.855Z,14.00
2022-11-20T19:12:54.997Z,16.30
2022-11-20T19:15:22.437Z,16.30
2022-11-20T19:17:49.880Z,15.00
2022-11-20T19:20:18.144Z,15.80
2022-11-20T19:22:51.669Z,15.80
2022-11-20T19:25:19.892Z,15.40
2022-11-20T19:27:48.119Z,15.10
2022-11-20T19:30:23.838Z,16.50
2022-11-20T19:32:51.624Z,15.20
2022-11-20T19:35:21.108Z,15.10
2022-11-20T19:37:49.496Z,16.30
2022-11-20T19:40:17.889Z,23.50
2022-11-20T19:42:46.037Z,15.60
2022-11-20T19:45:14.225Z,16.20
2022-11-20T19:50:32.957Z,16.70
2022-11-20T19:53:01.043Z,16.60
2022-11-20T19:55:29.517Z,16.90
2022-11-20T19:57:58.219Z,16.50
2022-11-20T20:00:31.138Z,15.10
2022-11-20T20:03:03.200Z,15.40
2022-11-20T20:05:31.030Z,16.70
2022-11-20T20:07:58.806Z,16.70
2022-11-20T20:10:29.690Z,18.10
2022-11-20T20:12:59.888Z,18.20
2022-11-20T20:15:28.046Z,19.50
2022-11-20T20:17:56.151Z,19.30
2022-11-20T20:20:24.059Z,19.70
2022-11-20T20:22:52.685Z,21.90
2022-11-20T20:25:20.939Z,18.90
2022-11-20T20:27:49.222Z,17.90
2022-11-20T20:30:16.682Z,19.60
2022-11-20T20:32:45.122Z,17.30
2022-11-20T20:35:13.219Z,16.40
2022-11-20T20:37:40.563Z,17.40
2022-11-20T20:40:12.222Z,17.00
2022-11-20T20:42:42.438Z,16.60
2022-11-20T20:45:12.378Z,16.70
2022-11-20T20:47:41.043Z,18.00
2022-11-20T20:50:12.038Z,17.50
2022-11-20T20:52:39.741Z,17.70
2022-11-20T20:55:08.189Z,17.50
2022-11-20T20:57:36.202Z,18.20
2022-11-20T21:00:06.003Z,18.10
2022-11-20T21:02:33.262Z,18.70
2022-11-20T21:05:01.019Z,20.40
2022-11-20T21:07:29.170Z,18.20
2022-11-20T21:09:57.258Z,19.80
2022-11-20T21:12:25.960Z,21.40
2022-11-20T21:14:54.842Z,21.40
2022-11-20T21:17:22.202Z,21.50
2022-11-20T21:19:49.802Z,16.10
2022-11-20T21:22:19.582Z,16.50
2022-11-20T21:24:47.356Z,18.40
2022-11-20T21:27:14.574Z,16.90
2022-11-20T21:29:41.961Z,16.10
2022-11-20T21:32:09.199Z,17.90
2022-11-20T21:34:36.669Z,16.40
2022-11-20T21:37:04.112Z,16.20
2022-11-20T21:39:31.681Z,14.90
2022-11-20T21:42:00.436Z,17.40
2022-11-20T21:44:31.388Z,15.10
2022-11-20T21:46:59.373Z,14.60
2022-11-20T21:49:26.671Z,13.60
2022-11-20T21:51:54.471Z,16.00
2022-11-20T21:54:22.391Z,17.70
2022-11-20T21:56:50.703Z,19.50
2022-11-20T21:59:19.022Z,20.60
2022-11-20T22:01:46.629Z,22.70
2022-11-20T22:04:15.779Z,24.80
2022-11-20T22:06:43.202Z,25.30
2022-11-20T22:09:12.084Z,24.30
2022-11-20T22:11:39.563Z,24.60
2022-11-20T22:14:22.470Z,23.80
2022-11-20T22:16:52.962Z,25.90
2022-11-20T22:19:22.637Z,24.10
2022-11-20T22:21:51.492Z,24.80
2022-11-20T22:24:20.389Z,22.30
2022-11-20T22:26:48.656Z,23.90
2022-11-20T22:29:17.676Z,21.40
2022-11-20T22:31:45.018Z,21.60
2022-11-20T22:34:14.316Z,22.80
2022-11-20T22:36:42.085Z,23.20
2022-11-20T22:39:10.069Z,22.20
2022-11-20T22:41:38.210Z,21.00
2022-11-20T22:44:07.520Z,19.50
2022-11-20T22:46:36.506Z,18.90
2022-11-20T22:49:06.535Z,19.60
2022-11-20T22:51:39.354Z,22.50
2022-11-20T22:54:07.181Z,20.60
2022-11-20T22:56:35.435Z,21.90
2022-11-20T22:59:02.846Z,22.10
2022-11-20T23:01:35.075Z,20.70
2022-11-20T23:04:04.738Z,22.00
2022-11-20T23:06:34.697Z,19.30
2022-11-20T23:09:02.915Z,20.40
2022-11-20T23:11:32.477Z,19.80
2022-11-20T23:14:08.725Z,18.60
2022-11-20T23:16:36.184Z,18.50
2022-11-20T23:19:11.415Z,17.70
2022-11-20T23:21:40.096Z,18.80
2022-11-20T23:24:08.250Z,19.60
2022-11-20T23:26:37.596Z,17.80
2022-11-20T23:29:05.912Z,18.80
2022-11-20T23:31:35.586Z,18.60
2022-11-20T23:34:02.839Z,18.60
2022-11-20T23:36:30.216Z,18.90
2022-11-20T23:38:57.736Z,19.20
2022-11-20T23:41:26.118Z,16.80
2022-11-20T23:43:56.448Z,14.50
2022-11-20T23:46:23.583Z,13.50
2022-11-20T23:48:50.640Z,13.90
2022-11-20T23:51:18.401Z,16.50
2022-11-20T23:53:45.656Z,16.80
2022-11-20T23:56:16.096Z,18.50
2022-11-20T23:58:43.736Z,17.80
